sensor_id;sensor_type;location;lat;lon;timestamp;pressure;altitude;pressure_sealevel;temperature;humidity
36222;BME280;22266;52.340;4.962;2023-03-03T00:00:53;102561.28;;;3.80;79.63
36222;BME280;22266;52.340;4.962;2023-03-03T00:03:22;102571.00;;;3.81;79.30
36222;BME280;22266;52.340;4.962;2023-03-03T00:05:50;102562.47;;;3.76;79.62
36222;BME280;22266;52.340;4.962;2023-03-03T00:08:18;102569.72;;;3.74;79.85
36222;BME280;22266;52.340;4.962;2023-03-03T00:10:45;102564.59;;;3.71;79.65
36222;BME280;22266;52.340;4.962;2023-03-03T00:13:15;102565.25;;;3.75;80.29
36222;BME280;22266;52.340;4.962;2023-03-03T00:15:43;102562.47;;;3.76;79.65
36222;BME280;22266;52.340;4.962;2023-03-03T00:18:34;102568.88;;;3.74;80.11
36222;BME280;22266;52.340;4.962;2023-03-03T00:21:02;102565.25;;;3.75;79.74
36222;BME280;22266;52.340;4.962;2023-03-03T00:23:35;102568.13;;;3.71;79.86
36222;BME280;22266;52.340;4.962;2023-03-03T00:26:05;102568.25;;;3.70;79.80
36222;BME280;22266;52.340;4.962;2023-03-03T00:28:47;102566.44;;;3.70;79.26
36222;BME280;22266;52.340;4.962;2023-03-03T00:31:32;102571.88;;;3.69;80.01
36222;BME280;22266;52.340;4.962;2023-03-03T00:36:43;102564.28;;;3.76;79.66
36222;BME280;22266;52.340;4.962;2023-03-03T00:41:52;102579.22;;;3.78;79.76
36222;BME280;22266;52.340;4.962;2023-03-03T00:47:30;102575.69;;;3.78;79.25
36222;BME280;22266;52.340;4.962;2023-03-03T00:52:39;102576.53;;;3.78;79.28
36222;BME280;22266;52.340;4.962;2023-03-03T00:55:07;102578.13;;;3.81;79.51
36222;BME280;22266;52.340;4.962;2023-03-03T00:57:33;102581.44;;;3.84;79.26
36222;BME280;22266;52.340;4.962;2023-03-03T01:00:00;102584.72;;;3.88;79.05
36222;BME280;22266;52.340;4.962;2023-03-03T01:02:28;102586.44;;;3.89;79.12
36222;BME280;22266;52.340;4.962;2023-03-03T01:04:56;102585.81;;;3.85;78.38
36222;BME280;22266;52.340;4.962;2023-03-03T01:07:22;102587.41;;;3.75;78.51
36222;BME280;22266;52.340;4.962;2023-03-03T01:09:49;102588.91;;;3.66;78.43
36222;BME280;22266;52.340;4.962;2023-03-03T01:12:15;102590.59;;;3.67;79.21
36222;BME280;22266;52.340;4.962;2023-03-03T01:14:42;102589.53;;;3.70;79.41
36222;BME280;22266;52.340;4.962;2023-03-03T01:17:11;102585.91;;;3.71;78.87
36222;BME280;22266;52.340;4.962;2023-03-03T01:19:38;102584.63;;;3.77;79.28
36222;BME280;22266;52.340;4.962;2023-03-03T01:22:05;102588.91;;;3.79;79.19
36222;BME280;22266;52.340;4.962;2023-03-03T01:24:31;102594.44;;;3.76;78.51
36222;BME280;22266;52.340;4.962;2023-03-03T01:26:58;102591.88;;;3.75;78.81
36222;BME280;22266;52.340;4.962;2023-03-03T01:29:25;102591.69;;;3.78;78.70
36222;BME280;22266;52.340;4.962;2023-03-03T01:31:51;102588.03;;;3.79;78.47
36222;BME280;22266;52.340;4.962;2023-03-03T01:34:18;102585.38;;;3.79;79.14
36222;BME280;22266;52.340;4.962;2023-03-03T01:36:44;102591.75;;;3.76;78.77
36222;BME280;22266;52.340;4.962;2023-03-03T01:39:10;102588.59;;;3.71;79.19
36222;BME280;22266;52.340;4.962;2023-03-03T01:41:38;102585.19;;;3.69;79.72
36222;BME280;22266;52.340;4.962;2023-03-03T01:44:06;102587.63;;;3.72;80.18
36222;BME280;22266;52.340;4.962;2023-03-03T01:46:41;102600.72;;;3.75;80.48
36222;BME280;22266;52.340;4.962;2023-03-03T01:49:22;102591.69;;;3.65;80.21
36222;BME280;22266;52.340;4.962;2023-03-03T01:51:57;102594.75;;;3.59;81.52
36222;BME280;22266;52.340;4.962;2023-03-03T01:54:33;102587.28;;;3.51;81.78
36222;BME280;22266;52.340;4.962;2023-03-03T01:57:05;102594.88;;;3.44;82.34
36222;BME280;22266;52.340;4.962;2023-03-03T01:59:36;102607.06;;;3.34;82.70
36222;BME280;22266;52.340;4.962;2023-03-03T02:02:07;102593.31;;;3.28;83.45
36222;BME280;22266;52.340;4.962;2023-03-03T02:04:34;102597.06;;;3.25;83.98
36222;BME280;22266;52.340;4.962;2023-03-03T02:07:04;102593.63;;;3.23;84.11
36222;BME280;22266;52.340;4.962;2023-03-03T02:10:06;102600.22;;;3.17;84.45
36222;BME280;22266;52.340;4.962;2023-03-03T02:12:46;102587.97;;;3.15;85.27
36222;BME280;22266;52.340;4.962;2023-03-03T02:17:46;102592.66;;;3.11;85.53
36222;BME280;22266;52.340;4.962;2023-03-03T02:25:36;102581.34;;;3.08;85.96
36222;BME280;22266;52.340;4.962;2023-03-03T02:28:07;102583.09;;;3.09;85.91
36222;BME280;22266;52.340;4.962;2023-03-03T02:30:36;102577.97;;;3.06;85.22
36222;BME280;22266;52.340;4.962;2023-03-03T02:33:04;102579.22;;;3.00;85.74
36222;BME280;22266;52.340;4.962;2023-03-03T02:35:35;102578.34;;;3.00;86.11
36222;BME280;22266;52.340;4.962;2023-03-03T02:41:23;102585.28;;;3.02;85.82
36222;BME280;22266;52.340;4.962;2023-03-03T02:44:05;102582.94;;;2.97;85.71
36222;BME280;22266;52.340;4.962;2023-03-03T02:46:35;102582.75;;;3.01;86.31
36222;BME280;22266;52.340;4.962;2023-03-03T02:49:03;102587.63;;;3.07;86.38
36222;BME280;22266;52.340;4.962;2023-03-03T02:51:31;102587.00;;;3.03;86.23
36222;BME280;22266;52.340;4.962;2023-03-03T02:53:57;102577.41;;;3.01;85.84
36222;BME280;22266;52.340;4.962;2023-03-03T02:56:27;102581.34;;;3.08;86.28
36222;BME280;22266;52.340;4.962;2023-03-03T02:58:54;102582.66;;;3.15;86.68
36222;BME280;22266;52.340;4.962;2023-03-03T03:01:21;102577.13;;;3.18;86.21
36222;BME280;22266;52.340;4.962;2023-03-03T03:03:50;102582.56;;;3.16;85.49
36222;BME280;22266;52.340;4.962;2023-03-03T03:06:19;102592.91;;;3.21;85.80
36222;BME280;22266;52.340;4.962;2023-03-03T03:08:46;102578.84;;;3.19;85.44
36222;BME280;22266;52.340;4.962;2023-03-03T03:11:13;102585.13;;;3.18;85.41
36222;BME280;22266;52.340;4.962;2023-03-03T03:13:39;102586.09;;;3.17;85.33
36222;BME280;22266;52.340;4.962;2023-03-03T03:16:06;102574.88;;;3.12;85.12
36222;BME280;22266;52.340;4.962;2023-03-03T03:18:33;102579.47;;;3.10;84.93
36222;BME280;22266;52.340;4.962;2023-03-03T03:21:11;102584.91;;;3.08;84.63
36222;BME280;22266;52.340;4.962;2023-03-03T03:23:39;102584.13;;;3.06;84.96
36222;BME280;22266;52.340;4.962;2023-03-03T03:26:06;102587.00;;;3.03;85.09
36222;BME280;22266;52.340;4.962;2023-03-03T03:28:34;102581.66;;;3.03;85.16
36222;BME280;22266;52.340;4.962;2023-03-03T03:31:02;102579.84;;;3.04;85.26
36222;BME280;22266;52.340;4.962;2023-03-03T03:33:29;102590.41;;;3.05;85.21
36222;BME280;22266;52.340;4.962;2023-03-03T03:35:57;102587.44;;;3.10;85.54
36222;BME280;22266;52.340;4.962;2023-03-03T03:38:25;102592.75;;;3.10;85.11
36222;BME280;22266;52.340;4.962;2023-03-03T03:40:53;102588.59;;;3.06;84.78
36222;BME280;22266;52.340;4.962;2023-03-03T03:43:21;102589.44;;;3.06;84.77
36222;BME280;22266;52.340;4.962;2023-03-03T03:45:47;102588.72;;;3.04;84.82
36222;BME280;22266;52.340;4.962;2023-03-03T03:48:15;102595.72;;;3.05;84.78
36222;BME280;22266;52.340;4.962;2023-03-03T03:50:46;102585.81;;;3.07;85.13
36222;BME280;22266;52.340;4.962;2023-03-03T03:53:13;102585.22;;;3.16;85.51
36222;BME280;22266;52.340;4.962;2023-03-03T03:55:39;102585.75;;;3.21;85.24
36222;BME280;22266;52.340;4.962;2023-03-03T03:58:06;102593.84;;;3.20;84.74
36222;BME280;22266;52.340;4.962;2023-03-03T04:00:32;102602.59;;;3.22;84.51
36222;BME280;22266;52.340;4.962;2023-03-03T04:03:00;102599.59;;;3.27;84.47
36222;BME280;22266;52.340;4.962;2023-03-03T04:05:27;102602.91;;;3.30;84.54
36222;BME280;22266;52.340;4.962;2023-03-03T04:07:54;102605.06;;;3.38;84.58
36222;BME280;22266;52.340;4.962;2023-03-03T04:10:21;102601.44;;;3.39;84.86
36222;BME280;22266;52.340;4.962;2023-03-03T04:12:47;102594.88;;;3.44;84.13
36222;BME280;22266;52.340;4.962;2023-03-03T04:15:14;102609.75;;;3.47;84.33
36222;BME280;22266;52.340;4.962;2023-03-03T04:17:41;102598.06;;;3.50;83.99
36222;BME280;22266;52.340;4.962;2023-03-03T04:20:13;102602.41;;;3.51;83.35
36222;BME280;22266;52.340;4.962;2023-03-03T04:22:42;102603.59;;;3.46;83.00
36222;BME280;22266;52.340;4.962;2023-03-03T04:25:14;102598.13;;;3.35;83.00
36222;BME280;22266;52.340;4.962;2023-03-03T04:27:41;102603.75;;;3.31;83.54
36222;BME280;22266;52.340;4.962;2023-03-03T04:30:10;102597.78;;;3.27;83.63
36222;BME280;22266;52.340;4.962;2023-03-03T04:32:38;102607.28;;;3.31;83.28
36222;BME280;22266;52.340;4.962;2023-03-03T04:35:08;102618.03;;;3.30;83.66
36222;BME280;22266;52.340;4.962;2023-03-03T04:37:38;102610.91;;;3.30;83.50
36222;BME280;22266;52.340;4.962;2023-03-03T04:40:07;102608.25;;;3.30;83.32
36222;BME280;22266;52.340;4.962;2023-03-03T04:42:35;102603.22;;;3.26;83.24
36222;BME280;22266;52.340;4.962;2023-03-03T04:45:03;102609.41;;;3.26;83.84
36222;BME280;22266;52.340;4.962;2023-03-03T04:47:31;102603.03;;;3.29;83.62
36222;BME280;22266;52.340;4.962;2023-03-03T04:49:58;102610.06;;;3.30;83.48
36222;BME280;22266;52.340;4.962;2023-03-03T04:52:27;102610.78;;;3.32;83.82
36222;BME280;22266;52.340;4.962;2023-03-03T04:54:54;102614.09;;;3.35;83.10
36222;BME280;22266;52.340;4.962;2023-03-03T04:57:21;102618.56;;;3.35;83.49
36222;BME280;22266;52.340;4.962;2023-03-03T04:59:48;102622.31;;;3.32;83.50
36222;BME280;22266;52.340;4.962;2023-03-03T05:02:14;102614.09;;;3.35;83.64
36222;BME280;22266;52.340;4.962;2023-03-03T05:04:41;102615.91;;;3.35;82.59
36222;BME280;22266;52.340;4.962;2023-03-03T05:07:08;102614.09;;;3.35;83.11
36222;BME280;22266;52.340;4.962;2023-03-03T05:09:35;102608.69;;;3.37;83.71
36222;BME280;22266;52.340;4.962;2023-03-03T05:12:02;102610.28;;;3.39;83.60
36222;BME280;22266;52.340;4.962;2023-03-03T05:14:28;102607.41;;;3.42;83.97
36222;BME280;22266;52.340;4.962;2023-03-03T05:16:56;102601.97;;;3.44;84.07
36222;BME280;22266;52.340;4.962;2023-03-03T05:19:23;102606.25;;;3.46;83.63
36222;BME280;22266;52.340;4.962;2023-03-03T05:21:50;102614.13;;;3.48;83.89
36222;BME280;22266;52.340;4.962;2023-03-03T05:24:17;102609.66;;;3.49;83.75
36222;BME280;22266;52.340;4.962;2023-03-03T05:26:44;102606.78;;;3.52;83.18
36222;BME280;22266;52.340;4.962;2023-03-03T05:29:10;102608.19;;;3.57;83.66
36222;BME280;22266;52.340;4.962;2023-03-03T05:31:36;102611.50;;;3.61;83.43
36222;BME280;22266;52.340;4.962;2023-03-03T05:34:03;102606.91;;;3.63;82.64
36222;BME280;22266;52.340;4.962;2023-03-03T05:36:29;102608.06;;;3.59;83.28
36222;BME280;22266;52.340;4.962;2023-03-03T05:38:56;102611.16;;;3.53;83.16
36222;BME280;22266;52.340;4.962;2023-03-03T05:41:23;102603.47;;;3.48;83.12
36222;BME280;22266;52.340;4.962;2023-03-03T05:43:49;102605.84;;;3.53;83.39
36222;BME280;22266;52.340;4.962;2023-03-03T05:46:16;102611.59;;;3.59;83.81
36222;BME280;22266;52.340;4.962;2023-03-03T05:48:42;102610.72;;;3.59;82.83
36222;BME280;22266;52.340;4.962;2023-03-03T05:51:09;102608.72;;;3.62;83.29
36222;BME280;22266;52.340;4.962;2023-03-03T05:53:36;102615.09;;;3.60;83.05
36222;BME280;22266;52.340;4.962;2023-03-03T05:56:02;102620.41;;;3.60;83.36
36222;BME280;22266;52.340;4.962;2023-03-03T05:58:29;102618.53;;;3.62;82.90
36222;BME280;22266;52.340;4.962;2023-03-03T06:00:56;102625.41;;;3.64;83.17
36222;BME280;22266;52.340;4.962;2023-03-03T06:03:22;102628.97;;;3.65;83.28
36222;BME280;22266;52.340;4.962;2023-03-03T06:05:49;102628.00;;;3.66;82.92
36222;BME280;22266;52.340;4.962;2023-03-03T06:08:16;102625.41;;;3.64;82.52
36222;BME280;22266;52.340;4.962;2023-03-03T06:10:42;102630.13;;;3.61;82.53
36222;BME280;22266;52.340;4.962;2023-03-03T06:13:11;102626.81;;;3.57;82.68
36222;BME280;22266;52.340;4.962;2023-03-03T06:15:38;102629.38;;;3.59;82.82
36222;BME280;22266;52.340;4.962;2023-03-03T06:18:04;102622.22;;;3.59;83.26
36222;BME280;22266;52.340;4.962;2023-03-03T06:20:31;102622.44;;;3.56;82.64
36222;BME280;22266;52.340;4.962;2023-03-03T06:22:58;102618.91;;;3.56;83.24
36222;BME280;22266;52.340;4.962;2023-03-03T06:25:24;102625.09;;;3.56;83.09
36222;BME280;22266;52.340;4.962;2023-03-03T06:27:51;102623.59;;;3.52;83.07
36222;BME280;22266;52.340;4.962;2023-03-03T06:30:17;102625.66;;;3.49;82.97
36222;BME280;22266;52.340;4.962;2023-03-03T06:32:44;102619.25;;;3.51;83.30
36222;BME280;22266;52.340;4.962;2023-03-03T06:35:11;102624.69;;;3.50;83.59
36222;BME280;22266;52.340;4.962;2023-03-03T06:37:38;102629.34;;;3.46;83.18
36222;BME280;22266;52.340;4.962;2023-03-03T06:40:05;102628.38;;;3.47;83.68
36222;BME280;22266;52.340;4.962;2023-03-03T06:42:32;102628.06;;;3.52;84.02
36222;BME280;22266;52.340;4.962;2023-03-03T06:44:58;102627.69;;;3.58;84.09
36222;BME280;22266;52.340;4.962;2023-03-03T06:47:25;102631.84;;;3.62;83.86
36222;BME280;22266;52.340;4.962;2023-03-03T06:49:51;102640.56;;;3.64;83.57
36222;BME280;22266;52.340;4.962;2023-03-03T06:52:22;102636.50;;;3.58;83.40
36222;BME280;22266;52.340;4.962;2023-03-03T06:54:53;102642.88;;;3.56;83.65
36222;BME280;22266;52.340;4.962;2023-03-03T06:57:33;102639.28;;;3.57;84.03
36222;BME280;22266;52.340;4.962;2023-03-03T07:00:18;102648.84;;;3.59;83.81
36222;BME280;22266;52.340;4.962;2023-03-03T07:02:57;102647.28;;;3.57;84.02
36222;BME280;22266;52.340;4.962;2023-03-03T07:05:26;102658.66;;;3.59;83.37
36222;BME280;22266;52.340;4.962;2023-03-03T07:07:57;102640.66;;;3.50;83.69
36222;BME280;22266;52.340;4.962;2023-03-03T07:10:26;102652.50;;;3.58;84.20
36222;BME280;22266;52.340;4.962;2023-03-03T07:12:57;102652.06;;;3.64;84.22
36222;BME280;22266;52.340;4.962;2023-03-03T07:15:33;102657.28;;;3.66;83.80
36222;BME280;22266;52.340;4.962;2023-03-03T07:18:00;102656.31;;;3.67;83.97
36222;BME280;22266;52.340;4.962;2023-03-03T07:20:38;102663.16;;;3.71;83.95
36222;BME280;22266;52.340;4.962;2023-03-03T07:25:42;102666.66;;;3.59;83.93
36222;BME280;22266;52.340;4.962;2023-03-03T07:28:21;102669.13;;;3.62;83.95
36222;BME280;22266;52.340;4.962;2023-03-03T07:30:50;102682.22;;;3.65;83.80
36222;BME280;22266;52.340;4.962;2023-03-03T07:33:27;102670.69;;;3.64;83.71
36222;BME280;22266;52.340;4.962;2023-03-03T07:35:57;102676.91;;;3.65;84.20
36222;BME280;22266;52.340;4.962;2023-03-03T07:40:53;102686.59;;;3.66;84.03
36222;BME280;22266;52.340;4.962;2023-03-03T07:43:33;102692.56;;;3.69;84.18
36222;BME280;22266;52.340;4.962;2023-03-03T07:46:19;102691.78;;;3.67;84.00
36222;BME280;22266;52.340;4.962;2023-03-03T07:48:53;102690.53;;;3.73;84.68
36222;BME280;22266;52.340;4.962;2023-03-03T07:53:51;102692.66;;;3.81;84.16
36222;BME280;22266;52.340;4.962;2023-03-03T07:56:28;102697.78;;;3.84;83.77
36222;BME280;22266;52.340;4.962;2023-03-03T07:58:57;102703.13;;;3.84;83.50
36222;BME280;22266;52.340;4.962;2023-03-03T08:01:41;102699.72;;;3.82;83.65
36222;BME280;22266;52.340;4.962;2023-03-03T08:04:14;102708.56;;;3.82;83.51
36222;BME280;22266;52.340;4.962;2023-03-03T08:07:00;102711.75;;;3.87;83.50
36222;BME280;22266;52.340;4.962;2023-03-03T08:09:41;102705.38;;;3.90;83.52
36222;BME280;22266;52.340;4.962;2023-03-03T08:12:19;102714.75;;;3.95;83.57
36222;BME280;22266;52.340;4.962;2023-03-03T08:14:50;102721.78;;;3.96;83.09
36222;BME280;22266;52.340;4.962;2023-03-03T08:17:22;102720.94;;;3.96;83.53
36222;BME280;22266;52.340;4.962;2023-03-03T08:19:50;102717.22;;;3.99;83.52
36222;BME280;22266;52.340;4.962;2023-03-03T08:24:47;102720.59;;;4.01;83.22
36222;BME280;22266;52.340;4.962;2023-03-03T08:27:14;102720.53;;;4.02;83.36
36222;BME280;22266;52.340;4.962;2023-03-03T08:29:40;102726.19;;;4.10;83.32
36222;BME280;22266;52.340;4.962;2023-03-03T08:32:07;102732.56;;;4.20;82.99
36222;BME280;22266;52.340;4.962;2023-03-03T08:34:33;102726.69;;;4.28;82.86
36222;BME280;22266;52.340;4.962;2023-03-03T08:37:00;102722.22;;;4.41;83.10
36222;BME280;22266;52.340;4.962;2023-03-03T08:39:26;102729.28;;;4.42;82.01
36222;BME280;22266;52.340;4.962;2023-03-03T08:41:53;102722.53;;;4.37;81.26
36222;BME280;22266;52.340;4.962;2023-03-03T08:44:19;102723.38;;;4.37;81.79
36222;BME280;22266;52.340;4.962;2023-03-03T08:46:46;102725.97;;;4.39;81.89
36222;BME280;22266;52.340;4.962;2023-03-03T08:49:12;102723.09;;;4.42;81.54
36222;BME280;22266;52.340;4.962;2023-03-03T08:51:39;102726.38;;;4.45;81.36
36222;BME280;22266;52.340;4.962;2023-03-03T08:54:06;102728.72;;;4.50;81.73
36222;BME280;22266;52.340;4.962;2023-03-03T08:56:32;102734.59;;;4.55;81.81
36222;BME280;22266;52.340;4.962;2023-03-03T08:58:58;102734.78;;;4.65;81.51
36222;BME280;22266;52.340;4.962;2023-03-03T09:01:30;102735.53;;;4.67;80.98
36222;BME280;22266;52.340;4.962;2023-03-03T09:03:56;102728.72;;;4.63;80.32
36222;BME280;22266;52.340;4.962;2023-03-03T09:06:23;102736.38;;;4.67;80.89
36222;BME280;22266;52.340;4.962;2023-03-03T09:08:49;102729.75;;;4.73;80.52
36222;BME280;22266;52.340;4.962;2023-03-03T09:11:23;102741.38;;;4.72;79.87
36222;BME280;22266;52.340;4.962;2023-03-03T09:13:59;102726.44;;;4.69;81.33
36222;BME280;22266;52.340;4.962;2023-03-03T09:16:34;102738.91;;;4.82;80.60
36222;BME280;22266;52.340;4.962;2023-03-03T09:19:30;102731.78;;;4.82;80.16
36222;BME280;22266;52.340;4.962;2023-03-03T09:22:01;102738.47;;;4.88;80.35
36222;BME280;22266;52.340;4.962;2023-03-03T09:24:30;102736.53;;;5.03;80.94
36222;BME280;22266;52.340;4.962;2023-03-03T09:26:57;102737.00;;;5.20;80.43
36222;BME280;22266;52.340;4.962;2023-03-03T09:29:29;102733.47;;;5.44;79.93
36222;BME280;22266;52.340;4.962;2023-03-03T09:32:09;102728.97;;;5.68;79.52
36222;BME280;22266;52.340;4.962;2023-03-03T09:34:46;102734.91;;;5.96;78.90
36222;BME280;22266;52.340;4.962;2023-03-03T09:39:51;102740.19;;;6.76;82.92
36222;BME280;22266;52.340;4.962;2023-03-03T09:42:40;102730.59;;;6.85;77.68
36222;BME280;22266;52.340;4.962;2023-03-03T09:45:37;102740.44;;;6.84;76.15
36222;BME280;22266;52.340;4.962;2023-03-03T09:48:10;102732.31;;;6.86;75.16
36222;BME280;22266;52.340;4.962;2023-03-03T09:51:12;102737.13;;;7.03;74.60
36222;BME280;22266;52.340;4.962;2023-03-03T09:57:21;102738.88;;;6.93;73.92
36222;BME280;22266;52.340;4.962;2023-03-03T10:06:02;102728.72;;;7.08;71.99
36222;BME280;22266;52.340;4.962;2023-03-03T10:11:31;102735.50;;;7.23;72.11
36222;BME280;22266;52.340;4.962;2023-03-03T10:14:34;102737.69;;;7.29;71.86
36222;BME280;22266;52.340;4.962;2023-03-03T10:17:34;102738.56;;;7.30;71.75
36222;BME280;22266;52.340;4.962;2023-03-03T10:20:25;102750.09;;;7.41;71.08
36222;BME280;22266;52.340;4.962;2023-03-03T10:28:36;102744.38;;;7.35;70.13
36222;BME280;22266;52.340;4.962;2023-03-03T10:31:33;102738.63;;;7.39;69.49
36222;BME280;22266;52.340;4.962;2023-03-03T10:37:12;102735.72;;;7.42;69.76
36222;BME280;22266;52.340;4.962;2023-03-03T10:40:12;102747.34;;;7.53;69.47
36222;BME280;22266;52.340;4.962;2023-03-03T10:42:57;102744.06;;;7.49;68.05
36222;BME280;22266;52.340;4.962;2023-03-03T10:48:30;102742.59;;;7.56;67.36
36222;BME280;22266;52.340;4.962;2023-03-03T10:54:27;102740.66;;;7.58;67.14
36222;BME280;22266;52.340;4.962;2023-03-03T10:57:10;102737.56;;;7.63;66.67
36222;BME280;22266;52.340;4.962;2023-03-03T11:00:42;102739.50;;;7.61;66.52
36222;BME280;22266;52.340;4.962;2023-03-03T11:06:01;102732.84;;;7.23;66.42
36222;BME280;22266;52.340;4.962;2023-03-03T11:08:51;102739.19;;;7.11;66.82
36222;BME280;22266;52.340;4.962;2023-03-03T11:14:32;102739.22;;;7.00;66.86
36222;BME280;22266;52.340;4.962;2023-03-03T11:20:21;102736.31;;;6.91;67.92
36222;BME280;22266;52.340;4.962;2023-03-03T11:23:14;102732.41;;;6.96;67.84
36222;BME280;22266;52.340;4.962;2023-03-03T11:26:02;102735.53;;;7.01;67.70
36222;BME280;22266;52.340;4.962;2023-03-03T11:29:09;102733.09;;;7.09;67.47
36222;BME280;22266;52.340;4.962;2023-03-03T11:31:51;102735.06;;;7.07;66.46
36222;BME280;22266;52.340;4.962;2023-03-03T11:36:56;102736.66;;;7.09;67.07
36222;BME280;22266;52.340;4.962;2023-03-03T11:39:27;102730.91;;;7.14;67.82
36222;BME280;22266;52.340;4.962;2023-03-03T11:44:37;102723.00;;;7.12;66.09
36222;BME280;22266;52.340;4.962;2023-03-03T11:50:17;102719.63;;;6.99;66.07
36222;BME280;22266;52.340;4.962;2023-03-03T11:52:56;102727.03;;;7.07;65.90
36222;BME280;22266;52.340;4.962;2023-03-03T11:55:35;102719.66;;;7.31;66.22
36222;BME280;22266;52.340;4.962;2023-03-03T11:58:22;102721.06;;;7.47;65.38
36222;BME280;22266;52.340;4.962;2023-03-03T12:00:55;102716.91;;;7.54;65.57
36222;BME280;22266;52.340;4.962;2023-03-03T12:03:39;102721.53;;;7.52;63.37
36222;BME280;22266;52.340;4.962;2023-03-03T12:06:21;102717.44;;;7.36;61.37
36222;BME280;22266;52.340;4.962;2023-03-03T12:09:12;102719.31;;;7.25;61.88
36222;BME280;22266;52.340;4.962;2023-03-03T12:11:51;102714.09;;;7.23;61.55
36222;BME280;22266;52.340;4.962;2023-03-03T12:14:31;102713.84;;;7.26;61.67
36222;BME280;22266;52.340;4.962;2023-03-03T12:17:05;102704.97;;;7.26;62.08
36222;BME280;22266;52.340;4.962;2023-03-03T12:22:33;102706.03;;;7.34;61.71
36222;BME280;22266;52.340;4.962;2023-03-03T12:25:12;102706.78;;;7.25;60.57
36222;BME280;22266;52.340;4.962;2023-03-03T12:28:03;102713.41;;;7.10;60.40
36222;BME280;22266;52.340;4.962;2023-03-03T12:33:43;102703.94;;;6.94;62.20
36222;BME280;22266;52.340;4.962;2023-03-03T12:39:12;102699.72;;;7.13;62.29
36222;BME280;22266;52.340;4.962;2023-03-03T12:42:04;102702.69;;;7.10;61.45
36222;BME280;22266;52.340;4.962;2023-03-03T12:44:47;102706.00;;;7.02;61.01
36222;BME280;22266;52.340;4.962;2023-03-03T12:50:24;102691.53;;;6.93;61.71
36222;BME280;22266;52.340;4.962;2023-03-03T12:58:56;102690.78;;;7.03;62.78
36222;BME280;22266;52.340;4.962;2023-03-03T13:01:41;102690.53;;;7.06;63.36
36222;BME280;22266;52.340;4.962;2023-03-03T13:09:54;102685.13;;;7.17;63.34
36222;BME280;22266;52.340;4.962;2023-03-03T13:15:14;102695.19;;;7.25;63.83
36222;BME280;22266;52.340;4.962;2023-03-03T13:17:56;102694.25;;;7.26;63.52
36222;BME280;22266;52.340;4.962;2023-03-03T13:20:50;102687.31;;;7.23;63.37
36222;BME280;22266;52.340;4.962;2023-03-03T13:23:32;102690.97;;;7.22;64.16
36222;BME280;22266;52.340;4.962;2023-03-03T13:26:17;102692.41;;;7.26;64.39
36222;BME280;22266;52.340;4.962;2023-03-03T13:31:55;102687.50;;;7.31;64.52
36222;BME280;22266;52.340;4.962;2023-03-03T13:37:22;102680.44;;;7.41;63.32
36222;BME280;22266;52.340;4.962;2023-03-03T13:42:53;102685.84;;;7.51;63.80
36222;BME280;22266;52.340;4.962;2023-03-03T13:47:56;102682.19;;;7.52;62.36
36222;BME280;22266;52.340;4.962;2023-03-03T13:50:35;102678.25;;;7.56;62.93
36222;BME280;22266;52.340;4.962;2023-03-03T13:56:08;102677.41;;;7.56;60.65
36222;BME280;22266;52.340;4.962;2023-03-03T13:58:46;102687.88;;;7.59;60.64
36222;BME280;22266;52.340;4.962;2023-03-03T14:01:22;102680.06;;;7.67;60.30
36222;BME280;22266;52.340;4.962;2023-03-03T14:03:59;102678.88;;;7.60;59.73
36222;BME280;22266;52.340;4.962;2023-03-03T14:06:28;102673.25;;;7.63;58.99
36222;BME280;22266;52.340;4.962;2023-03-03T14:09:08;102676.31;;;7.58;58.37
36222;BME280;22266;52.340;4.962;2023-03-03T14:14:32;102678.88;;;7.60;59.20
36222;BME280;22266;52.340;4.962;2023-03-03T14:19:43;102679.13;;;7.57;58.74
36222;BME280;22266;52.340;4.962;2023-03-03T14:25:09;102679.97;;;7.57;57.47
36222;BME280;22266;52.340;4.962;2023-03-03T14:28:01;102675.78;;;7.64;58.13
36222;BME280;22266;52.340;4.962;2023-03-03T14:30:33;102670.88;;;7.69;58.05
36222;BME280;22266;52.340;4.962;2023-03-03T14:38:24;102657.47;;;7.69;57.81
36222;BME280;22266;52.340;4.962;2023-03-03T14:41:13;102663.31;;;7.75;57.06
36222;BME280;22266;52.340;4.962;2023-03-03T14:43:54;102656.72;;;7.79;57.80
36222;BME280;22266;52.340;4.962;2023-03-03T14:48:54;102652.91;;;7.81;57.41
36222;BME280;22266;52.340;4.962;2023-03-03T14:51:56;102646.84;;;7.79;57.56
36222;BME280;22266;52.340;4.962;2023-03-03T14:54:23;102650.09;;;7.83;58.45
36222;BME280;22266;52.340;4.962;2023-03-03T14:56:58;102647.16;;;7.86;58.31
36222;BME280;22266;52.340;4.962;2023-03-03T14:59:25;102647.72;;;7.89;58.34
36222;BME280;22266;52.340;4.962;2023-03-03T15:02:05;102652.66;;;7.84;57.67
36222;BME280;22266;52.340;4.962;2023-03-03T15:04:38;102641.31;;;7.81;57.85
36222;BME280;22266;52.340;4.962;2023-03-03T15:07:31;102645.19;;;7.88;57.54
36222;BME280;22266;52.340;4.962;2023-03-03T15:09:59;102648.28;;;7.83;57.14
36222;BME280;22266;52.340;4.962;2023-03-03T15:12:36;102643.41;;;7.77;57.73
36222;BME280;22266;52.340;4.962;2023-03-03T15:17:37;102624.22;;;7.72;57.19
36222;BME280;22266;52.340;4.962;2023-03-03T15:31:13;102617.84;;;7.73;58.52
36222;BME280;22266;52.340;4.962;2023-03-03T15:34:00;102620.13;;;7.78;58.82
36222;BME280;22266;52.340;4.962;2023-03-03T15:42:04;102610.63;;;7.64;58.30
36222;BME280;22266;52.340;4.962;2023-03-03T15:44:51;102613.50;;;7.72;57.92
36222;BME280;22266;52.340;4.962;2023-03-03T15:52:27;102609.97;;;7.72;58.81
36222;BME280;22266;52.340;4.962;2023-03-03T15:55:19;102608.38;;;7.69;58.28
36222;BME280;22266;52.340;4.962;2023-03-03T16:00:33;102622.31;;;7.63;58.64
36222;BME280;22266;52.340;4.962;2023-03-03T16:03:10;102610.38;;;7.67;59.29
36222;BME280;22266;52.340;4.962;2023-03-03T16:05:48;102613.28;;;7.64;58.88
36222;BME280;22266;52.340;4.962;2023-03-03T16:08:26;102611.84;;;7.60;58.15
36222;BME280;22266;52.340;4.962;2023-03-03T16:16:48;102617.63;;;7.55;58.48
36222;BME280;22266;52.340;4.962;2023-03-03T16:19:46;102614.88;;;7.46;58.90